Time;durP1;ratioP1;P1;durP2;ratioP2;P2;SDS_P1;SDS_P2;PMS_P1;PMS_P2;Temp;Humidity;BMP_temperature;BMP_pressure;BME280_temperature;BME280_humidity;BME280_pressure;Samples;Min_cycle;Max_cycle;Signal;HPM_P1;HPM_P2
2023/12/30 00:02:04;;;;;;;;;2.33;2.33;;;;;10.62;80.14;101162.22;5015011;28;45489;-77
2023/12/30 00:04:30;;;;;;;;;2.00;2.00;;;;;10.66;80.10;101171.63;5015044;28;45475;-77
2023/12/30 00:06:55;;;;;;;;;3.00;2.00;;;;;10.31;79.84;101108.22;5015009;28;45513;-80
2023/12/30 00:09:20;;;;;;;;;4.33;3.67;;;;;10.56;80.23;101151.28;4997148;28;45622;-78
2023/12/30 00:11:46;;;;;;;;;6.00;3.00;;;;;10.59;80.22;101157.16;5015789;28;45366;-78
2023/12/30 00:14:11;;;;;;;;;3.00;3.00;;;;;10.27;80.07;101108.63;5017356;28;45317;-77
2023/12/30 00:16:39;;;;;;;;;3.33;2.67;;;;;10.33;79.81;101124.03;5007903;28;46177;-78
2023/12/30 00:19:05;;;;;;;;;1.75;1.00;;;;;10.42;80.35;101133.88;5016637;28;45583;-78
2023/12/30 00:21:31;;;;;;;;;4.33;3.00;;;;;10.38;79.91;101136.91;5017256;28;45332;-78
2023/12/30 00:23:56;;;;;;;;;1.50;1.50;;;;;10.62;80.31;101169.38;5013949;28;45672;-77
2023/12/30 00:26:26;;;;;;;;;2.00;1.00;;;;;10.12;80.02;101092.16;5019204;28;45467;-79
2023/12/30 00:28:52;;;;;;;;;6.00;2.75;;;;;9.22;79.62;100956.56;5013032;28;45542;-78
2023/12/30 00:31:24;;;;;;;;;2.67;2.67;;;;;10.58;79.75;101179.41;5015703;28;45493;-77
2023/12/30 00:33:51;;;;;;;;;2.00;2.00;;;;;10.59;79.83;101183.75;5015693;28;45770;-78
2023/12/30 00:36:17;;;;;;;;;7.00;2.67;;;;;10.57;79.91;101180.38;5019646;28;46118;-77
2023/12/30 00:38:42;;;;;;;;;2.00;2.00;;;;;10.55;80.34;101176.16;5014649;28;45331;-76
2023/12/30 00:41:07;;;;;;;;;5.67;2.00;;;;;10.26;79.75;101123.72;5012648;28;45494;-77
2023/12/30 00:43:33;;;;;;;;;7.00;3.00;;;;;10.20;80.12;101112.75;5014231;28;45507;-77
2023/12/30 00:45:58;;;;;;;;;4.33;2.00;;;;;10.51;80.14;101170.28;5014847;28;45376;-78
2023/12/30 00:48:23;;;;;;;;;3.67;2.67;;;;;10.49;79.54;101166.09;5006621;28;45365;-75
2023/12/30 00:50:49;;;;;;;;;2.67;1.00;;;;;10.38;79.87;101147.53;5014889;28;45300;-76
2023/12/30 00:53:14;;;;;;;;;3.00;3.00;;;;;10.46;80.47;101166.34;5016306;28;45502;-78
2023/12/30 00:55:40;;;;;;;;;5.67;3.00;;;;;9.90;80.57;101079.88;5012760;28;45497;-77
2023/12/30 00:58:05;;;;;;;;;3.00;2.00;;;;;10.33;80.67;101153.28;5014061;28;45533;-76
2023/12/30 01:00:30;;;;;;;;;1.00;1.00;;;;;10.41;80.40;101168.53;5014164;28;45405;-77
2023/12/30 01:02:56;;;;;;;;;3.67;3.00;;;;;10.26;80.72;101149.47;4997688;28;45418;-77
2023/12/30 01:05:21;;;;;;;;;3.67;2.00;;;;;10.28;80.55;101158.16;5013998;28;45875;-77
2023/12/30 01:07:46;;;;;;;;;7.33;4.00;;;;;10.37;81.07;101178.59;5006968;28;45510;-78
2023/12/30 01:10:14;;;;;;;;;3.00;3.00;;;;;10.34;81.01;101178.88;4986214;28;45487;-78
2023/12/30 01:12:39;;;;;;;;;5.00;3.33;;;;;10.34;81.06;101176.22;5001449;28;45657;-76
2023/12/30 01:15:05;;;;;;;;;7.00;4.00;;;;;10.31;81.45;101179.13;5022938;28;46426;-78
2023/12/30 01:17:31;;;;;;;;;5.00;2.67;;;;;10.30;81.67;101190.75;5015329;28;45459;-76
2023/12/30 01:19:56;;;;;;;;;5.67;3.33;;;;;10.03;81.26;101141.63;5015121;28;45353;-79
2023/12/30 01:22:22;;;;;;;;;2.67;2.67;;;;;10.26;81.51;101178.69;4981683;28;45317;-78
2023/12/30 01:24:47;;;;;;;;;4.33;3.00;;;;;10.26;80.82;101184.00;5014787;28;45470;-76
2023/12/30 01:27:12;;;;;;;;;5.33;4.67;;;;;10.25;81.13;101188.50;5008751;28;45501;-77
2023/12/30 01:29:38;;;;;;;;;2.67;2.67;;;;;9.94;81.29;101128.25;5009527;28;45513;-78
2023/12/30 01:32:04;;;;;;;;;3.33;2.67;;;;;10.08;80.66;101157.16;5012947;28;45472;-77
2023/12/30 01:34:29;;;;;;;;;3.33;1.67;;;;;9.91;80.98;101129.38;5013461;28;45475;-76
2023/12/30 01:36:54;;;;;;;;;6.00;3.33;;;;;10.20;80.83;101176.50;5012539;28;45519;-77
2023/12/30 01:39:20;;;;;;;;;3.00;2.00;;;;;10.13;81.03;101167.38;5015309;28;45939;-75
2023/12/30 01:41:45;;;;;;;;;5.00;3.33;;;;;10.24;80.88;101191.28;5017274;28;45372;-78
2023/12/30 01:44:11;;;;;;;;;2.00;2.00;;;;;10.23;80.56;101186.94;5013790;28;45790;-77
2023/12/30 01:46:36;;;;;;;;;2.00;2.00;;;;;10.13;80.60;101176.19;4984818;28;45515;-77
2023/12/30 01:49:01;;;;;;;;;4.33;3.00;;;;;10.17;80.87;101187.41;5020845;28;45301;-76
2023/12/30 01:51:27;;;;;;;;;4.00;3.33;;;;;10.02;80.43;101169.16;5016642;28;45528;-78
2023/12/30 01:53:55;;;;;;;;;5.33;1.33;;;;;10.15;80.39;101189.34;5016995;28;45416;-78
2023/12/30 01:56:22;;;;;;;;;2.67;2.67;;;;;10.16;80.28;101194.53;5016409;28;45443;-77
2023/12/30 01:58:51;;;;;;;;;4.00;3.33;;;;;10.01;80.32;101174.56;5014238;28;45589;-76
2023/12/30 02:01:16;;;;;;;;;5.00;2.00;;;;;10.13;80.15;101188.66;5016608;28;45372;-77
2023/12/30 02:03:42;;;;;;;;;2.67;2.00;;;;;10.09;80.33;101189.88;5016008;28;45364;-76
2023/12/30 02:06:07;;;;;;;;;2.00;2.00;;;;;9.74;80.31;101137.91;5001556;28;45286;-78
2023/12/30 02:08:33;;;;;;;;;3.33;1.67;;;;;10.14;80.05;101203.59;5016593;28;45408;-77
2023/12/30 02:10:59;;;;;;;;;3.00;3.00;;;;;10.14;80.16;101203.59;5009125;28;45360;-77
2023/12/30 02:13:24;;;;;;;;;2.67;2.33;;;;;10.16;79.77;101199.00;4998744;28;46134;-76
2023/12/30 02:15:49;;;;;;;;;10.33;3.33;;;;;10.16;80.01;101206.97;5008253;28;45284;-77
2023/12/30 02:18:18;;;;;;;;;5.00;3.25;;;;;10.01;80.04;101194.03;5022370;28;45487;-77
2023/12/30 02:20:43;;;;;;;;;2.00;2.00;;;;;9.89;79.86;101180.94;5017003;28;45523;-79
2023/12/30 02:23:09;;;;;;;;;2.33;2.33;;;;;10.00;80.08;101204.75;5016205;28;45601;-76
2023/12/30 02:25:34;;;;;;;;;3.67;2.00;;;;;10.12;79.71;101232.97;5016217;28;45626;-77
2023/12/30 02:27:59;;;;;;;;;3.75;2.75;;;;;10.11;79.82;101225.97;5016618;28;45463;-78
2023/12/30 02:30:26;;;;;;;;;2.33;2.33;;;;;9.91;79.65;101195.78;5016479;28;45326;-77
2023/12/30 02:32:56;;;;;;;;;3.00;3.00;;;;;10.08;80.06;101228.88;4999397;28;48159;-78
2023/12/30 02:35:23;;;;;;;;;6.67;2.00;;;;;10.17;79.38;101243.19;5018467;28;45460;-74
2023/12/30 02:37:49;;;;;;;;;2.00;2.00;;;;;9.77;79.41;101174.81;5018614;28;45526;-76
2023/12/30 02:40:14;;;;;;;;;3.00;2.00;;;;;10.10;80.09;101226.94;5017016;28;45617;-78
2023/12/30 02:42:40;;;;;;;;;4.00;2.50;;;;;10.10;80.04;101223.44;5016809;28;46156;-77
2023/12/30 02:45:06;;;;;;;;;4.00;3.00;;;;;10.06;80.04;101226.38;5016610;28;45551;-76
2023/12/30 02:47:32;;;;;;;;;3.00;3.00;;;;;9.97;80.42;101216.50;5017316;28;45411;-77
2023/12/30 02:49:57;;;;;;;;;3.00;1.67;;;;;9.98;80.57;101215.53;5016259;28;45530;-79
2023/12/30 02:52:23;;;;;;;;;2.67;2.00;;;;;9.95;80.33;101221.09;5014315;28;46610;-76
2023/12/30 02:54:48;;;;;;;;;4.00;3.00;;;;;9.85;80.65;101201.59;5014809;28;45538;-78
2023/12/30 02:57:13;;;;;;;;;4.67;3.33;;;;;10.01;80.63;101222.38;5014308;28;45538;-76
2023/12/30 02:59:39;;;;;;;;;3.33;2.67;;;;;9.99;80.66;101227.00;5007162;28;45242;-77
2023/12/30 03:02:06;;;;;;;;;2.00;2.00;;;;;9.87;80.66;101204.13;5014160;28;46018;-76
2023/12/30 03:04:31;;;;;;;;;2.00;2.00;;;;;9.91;80.45;101211.72;4997896;28;45521;-75
2023/12/30 03:06:56;;;;;;;;;5.00;2.67;;;;;9.96;80.35;101224.59;5015734;28;45303;-75
2023/12/30 03:09:23;;;;;;;;;5.67;3.33;;;;;9.32;80.66;101127.25;5016080;28;45345;-78
2023/12/30 03:11:48;;;;;;;;;3.67;3.33;;;;;9.94;80.72;101219.41;5014581;28;45995;-76
2023/12/30 03:14:14;;;;;;;;;3.33;2.33;;;;;9.93;80.69;101219.53;5014741;28;45428;-76
2023/12/30 03:16:42;;;;;;;;;2.00;2.00;;;;;9.94;80.87;101213.25;5016995;28;45403;-77
2023/12/30 03:19:07;;;;;;;;;2.33;2.33;;;;;9.95;80.88;101214.94;5011978;28;45598;-77
2023/12/30 03:21:33;;;;;;;;;2.67;2.00;;;;;9.76;80.50;101189.06;5017198;28;45584;-79
2023/12/30 03:23:58;;;;;;;;;2.00;2.00;;;;;9.91;80.98;101224.13;4999266;28;45491;-77
2023/12/30 03:26:24;;;;;;;;;6.00;2.33;;;;;9.89;81.20;101218.97;5014676;28;45962;-76
2023/12/30 03:28:49;;;;;;;;;2.67;2.67;;;;;9.87;81.46;101226.22;5019343;28;45529;-76
2023/12/30 03:31:21;;;;;;;;;4.67;2.67;;;;;9.85;81.65;101228.16;5020279;28;45442;-78
2023/12/30 03:33:47;;;;;;;;;4.33;3.00;;;;;9.86;81.37;101231.66;5015819;28;45479;-77
2023/12/30 03:36:12;;;;;;;;;3.33;2.00;;;;;9.80;81.32;101222.38;4996913;28;45700;-75
2023/12/30 03:38:37;;;;;;;;;3.33;3.00;;;;;9.82;81.54;101227.56;5006924;28;45427;-77
2023/12/30 03:41:03;;;;;;;;;3.00;3.00;;;;;9.68;81.68;101208.31;5014908;28;46342;-76
2023/12/30 03:43:28;;;;;;;;;4.00;2.00;;;;;9.77;81.40;101227.94;4994282;28;45289;-77
2023/12/30 03:45:54;;;;;;;;;4.00;3.00;;;;;9.75;81.59;101225.41;5011451;28;45561;-77
2023/12/30 03:48:19;;;;;;;;;4.00;2.00;;;;;9.80;81.57;101235.63;5017356;28;45514;-78
2023/12/30 03:50:45;;;;;;;;;6.00;2.00;;;;;9.77;81.43;101233.25;4989434;28;46949;-76
2023/12/30 03:53:10;;;;;;;;;3.00;3.00;;;;;9.80;81.38;101233.00;5016430;28;45262;-76
2023/12/30 03:55:35;;;;;;;;;4.67;3.33;;;;;9.81;81.50;101232.03;5012359;28;45266;-76
2023/12/30 03:58:01;;;;;;;;;3.00;2.00;;;;;9.32;81.48;101148.47;5010125;28;45500;-76
2023/12/30 04:00:26;;;;;;;;;6.33;4.67;;;;;9.68;81.41;101207.47;5013430;28;45752;-75
2023/12/30 04:02:52;;;;;;;;;2.00;2.00;;;;;9.69;81.28;101212.66;5014308;28;45443;-76
2023/12/30 04:05:17;;;;;;;;;2.00;2.00;;;;;9.78;81.82;101226.97;5013627;28;45247;-76
2023/12/30 04:07:43;;;;;;;;;6.33;4.00;;;;;9.63;81.29;101204.34;5015107;28;45577;-75
2023/12/30 04:10:08;;;;;;;;;5.33;3.00;;;;;9.69;81.33;101210.00;5018006;28;46008;-75
2023/12/30 04:12:35;;;;;;;;;5.75;3.50;;;;;9.72;81.49;101224.81;5015257;28;45593;-75
2023/12/30 04:15:01;;;;;;;;;2.00;1.00;;;;;9.59;81.79;101208.22;5014068;28;45462;-77
2023/12/30 04:17:26;;;;;;;;;4.33;2.67;;;;;9.54;81.03;101190.00;5014149;28;45533;-76
2023/12/30 04:19:51;;;;;;;;;4.33;2.33;;;;;9.60;81.53;101205.44;5015540;28;46088;-77
2023/12/30 04:22:17;;;;;;;;;3.00;2.00;;;;;9.70;81.51;101221.47;5015206;28;45429;-78
2023/12/30 04:24:42;;;;;;;;;4.00;2.33;;;;;9.66;81.52;101215.56;5017193;28;45534;-76
2023/12/30 04:27:09;;;;;;;;;3.00;3.00;;;;;9.53;81.28;101187.50;5017938;28;45411;-77
2023/12/30 04:29:35;;;;;;;;;4.00;3.00;;;;;9.63;81.08;101197.22;5008513;28;46135;-75
2023/12/30 04:32:00;;;;;;;;;4.67;2.00;;;;;9.61;81.27;101200.97;4997397;28;45305;-74
2023/12/30 04:34:26;;;;;;;;;3.33;2.00;;;;;9.70;81.11;101211.69;5013786;28;45338;-76
2023/12/30 04:36:51;;;;;;;;;4.33;2.67;;;;;9.67;81.43;101216.41;5006551;28;45302;-77
2023/12/30 04:39:17;;;;;;;;;3.33;3.33;;;;;9.52;81.34;101191.13;5013413;28;46071;-76
2023/12/30 04:41:42;;;;;;;;;4.67;3.00;;;;;9.62;80.99;101213.28;5013698;28;45385;-76
2023/12/30 04:44:07;;;;;;;;;3.00;2.00;;;;;9.65;81.04;101223.66;5013204;28;45281;-75
2023/12/30 04:46:32;;;;;;;;;2.67;2.67;;;;;9.63;81.53;101225.59;5013046;28;45592;-76
2023/12/30 04:49:01;;;;;;;;;4.00;2.33;;;;;9.63;81.12;101226.44;4989124;28;46864;-76
2023/12/30 04:51:26;;;;;;;;;4.00;3.00;;;;;9.62;80.89;101223.91;5013879;28;45571;-75
2023/12/30 04:53:52;;;;;;;;;6.33;2.67;;;;;9.58;81.20;101222.44;5013282;28;45431;-76
2023/12/30 04:56:17;;;;;;;;;1.00;1.00;;;;;9.62;81.19;101231.88;5007856;28;45561;-77
2023/12/30 04:58:43;;;;;;;;;3.00;1.67;;;;;9.65;81.22;101228.97;5010387;28;46280;-74
2023/12/30 05:01:09;;;;;;;;;2.00;2.00;;;;;9.64;80.97;101212.19;4988006;28;45511;-77
2023/12/30 05:03:35;;;;;;;;;3.00;1.67;;;;;9.65;81.03;101228.97;4980650;28;45357;-77
2023/12/30 05:06:02;;;;;;;;;3.00;3.00;;;;;9.64;81.43;101229.94;5011363;28;45612;-76
2023/12/30 05:08:28;;;;;;;;;4.00;2.00;;;;;9.41;81.22;101182.25;5013188;28;46246;-77
2023/12/30 05:10:53;;;;;;;;;3.00;3.00;;;;;9.63;80.89;101209.66;5012088;28;45392;-75
2023/12/30 05:13:18;;;;;;;;;4.33;2.00;;;;;9.71;80.47;101223.97;5013243;28;45479;-77
2023/12/30 05:15:44;;;;;;;;;2.00;2.00;;;;;9.41;80.50;101170.75;4982858;28;45475;-76
2023/12/30 05:18:11;;;;;;;;;4.00;3.00;;;;;9.71;80.71;101218.66;5016876;28;45954;-77
2023/12/30 05:20:36;;;;;;;;;4.00;3.00;;;;;9.73;80.53;101215.88;5016382;28;45388;-77
2023/12/30 05:23:02;;;;;;;;;5.00;3.67;;;;;9.45;80.68;101162.44;5016227;28;45877;-78
2023/12/30 05:25:27;;;;;;;;;6.00;4.00;;;;;9.52;80.04;101169.88;5017399;28;45309;-77
2023/12/30 05:27:53;;;;;;;;;2.00;2.00;;;;;9.83;80.21;101213.31;5016768;28;46092;-77
2023/12/30 05:30:18;;;;;;;;;6.00;2.33;;;;;9.69;80.14;101188.75;5016059;28;45401;-76
2023/12/30 05:32:43;;;;;;;;;4.33;3.00;;;;;9.31;80.16;101119.41;5016878;28;45328;-76
2023/12/30 05:35:09;;;;;;;;;4.00;3.00;;;;;9.86;80.27;101200.63;5017581;28;45531;-77
2023/12/30 05:37:34;;;;;;;;;4.67;3.00;;;;;9.91;80.71;101209.03;5016734;28;45641;-77
2023/12/30 05:39:59;;;;;;;;;3.33;2.67;;;;;9.96;80.00;101198.88;4983044;28;46017;-78
2023/12/30 05:42:25;;;;;;;;;6.00;5.00;;;;;9.74;80.16;101164.47;5017557;28;45456;-76
2023/12/30 05:44:50;;;;;;;;;5.00;3.00;;;;;9.98;80.03;101196.94;5016711;28;45297;-77
2023/12/30 05:47:15;;;;;;;;;3.00;3.00;;;;;9.95;80.47;101199.00;5017061;28;46128;-77
2023/12/30 05:49:41;;;;;;;;;4.00;4.00;;;;;9.90;79.86;101196.75;5012744;28;45624;-76
2023/12/30 05:52:07;;;;;;;;;4.67;3.00;;;;;9.78;80.02;101173.84;5015960;28;45589;-77
2023/12/30 05:54:33;;;;;;;;;4.00;3.00;;;;;9.87;80.25;101201.47;5016686;28;45644;-78
2023/12/30 05:57:00;;;;;;;;;6.67;3.67;;;;;9.75;80.53;101185.59;5015699;28;45363;-75
2023/12/30 05:59:26;;;;;;;;;5.00;3.67;;;;;9.82;80.49;101193.06;5007181;28;45450;-76
2023/12/30 06:01:52;;;;;;;;;3.00;3.00;;;;;9.79;80.84;101185.31;4998363;28;45404;-77
2023/12/30 06:04:18;;;;;;;;;4.67;4.00;;;;;9.72;81.24;101172.56;5014459;28;45533;-76
2023/12/30 06:06:43;;;;;;;;;4.67;3.67;;;;;9.77;80.57;101185.44;4988111;28;48102;-75
2023/12/30 06:09:09;;;;;;;;;7.00;2.33;;;;;9.77;80.64;101196.06;5011386;28;45336;-76
2023/12/30 06:11:34;;;;;;;;;4.00;3.00;;;;;9.78;80.99;101192.44;5016137;28;45349;-76
2023/12/30 06:14:00;;;;;;;;;5.00;2.33;;;;;9.77;80.49;101204.03;4992789;28;45350;-75
2023/12/30 06:16:25;;;;;;;;;2.00;2.00;;;;;9.62;80.50;101166.34;5012812;28;45638;-76
2023/12/30 06:18:50;;;;;;;;;4.00;2.67;;;;;9.50;80.79;101156.75;5016031;28;45582;-78
2023/12/30 06:21:16;;;;;;;;;4.33;3.00;;;;;9.71;81.05;101201.91;4997986;28;46729;-76
2023/12/30 06:23:41;;;;;;;;;3.00;3.00;;;;;9.58;80.79;101187.94;5016103;28;45289;-78
2023/12/30 06:26:06;;;;;;;;;4.33;3.00;;;;;9.65;80.94;101197.09;5016634;28;46130;-77
2023/12/30 06:28:32;;;;;;;;;6.00;4.33;;;;;9.64;80.85;101206.03;5016110;28;45482;-77
2023/12/30 06:30:57;;;;;;;;;4.00;2.67;;;;;9.64;81.00;101209.53;5017832;28;45609;-77
2023/12/30 06:33:23;;;;;;;;;5.67;4.00;;;;;9.64;81.28;101204.22;5000918;28;45572;-78
2023/12/30 06:35:49;;;;;;;;;3.00;3.00;;;;;9.67;80.71;101216.41;5017369;28;45432;-78
2023/12/30 06:38:15;;;;;;;;;4.25;3.25;;;;;9.66;80.91;101209.41;5017230;28;45365;-77
2023/12/30 06:40:41;;;;;;;;;4.67;4.67;;;;;9.68;80.91;101207.47;5015165;28;45390;-76
2023/12/30 06:43:09;;;;;;;;;6.00;3.00;;;;;9.39;81.00;101157.59;5016883;28;45442;-77
2023/12/30 06:45:35;;;;;;;;;4.00;2.00;;;;;9.67;80.73;101205.78;5015368;28;46304;-75
2023/12/30 06:48:00;;;;;;;;;4.00;2.00;;;;;9.65;81.10;101218.34;5015729;28;45444;-78
2023/12/30 06:50:26;;;;;;;;;2.67;2.00;;;;;9.57;81.26;101203.03;5018078;28;45407;-77
2023/12/30 06:52:54;;;;;;;;;7.00;6.00;;;;;9.48;81.30;101187.88;5027322;28;45131;-76
2023/12/30 06:55:19;;;;;;;;;6.00;2.00;;;;;9.62;81.58;101207.97;5021120;28;45633;-76
2023/12/30 06:57:45;;;;;;;;;4.00;2.33;;;;;9.64;81.38;101211.34;5019258;28;45474;-77
2023/12/30 07:00:11;;;;;;;;;2.67;2.00;;;;;9.61;81.63;101215.09;5018647;28;45558;-75
2023/12/30 07:02:36;;;;;;;;;4.67;2.33;;;;;9.60;81.45;101216.03;5016579;28;45914;-78
2023/12/30 07:05:02;;;;;;;;;5.67;2.67;;;;;9.51;81.69;101200.03;5016117;28;45454;-76
2023/12/30 07:07:27;;;;;;;;;5.67;3.33;;;;;9.50;81.66;101204.50;5019776;28;45515;-77
2023/12/30 07:09:53;;;;;;;;;3.67;3.67;;;;;9.57;81.60;101218.13;5022554;28;44850;-77
2023/12/30 07:12:18;;;;;;;;;4.00;2.33;;;;;9.42;81.55;101191.03;5022518;28;45250;-76
2023/12/30 07:14:43;;;;;;;;;4.00;3.00;;;;;9.55;82.05;101204.13;5025317;28;45149;-79
2023/12/30 07:17:09;;;;;;;;;4.33;2.00;;;;;9.47;81.50;101193.31;5016497;28;45337;-75
2023/12/30 07:19:34;;;;;;;;;2.00;2.00;;;;;9.57;81.63;101213.66;5015663;28;45461;-77
2023/12/30 07:22:00;;;;;;;;;4.00;3.33;;;;;9.54;82.33;101210.41;5016259;28;45503;-77
2023/12/30 07:24:25;;;;;;;;;5.67;3.00;;;;;9.47;82.05;101203.94;4998428;28;46472;-77
2023/12/30 07:26:51;;;;;;;;;3.00;2.33;;;;;9.31;81.98;101180.44;4998179;28;45467;-77
2023/12/30 07:29:16;;;;;;;;;4.00;3.00;;;;;9.06;82.05;101134.69;5015231;28;45293;-76
2023/12/30 07:31:42;;;;;;;;;5.00;5.00;;;;;9.51;82.33;101215.97;5015516;28;45442;-76
2023/12/30 07:34:07;;;;;;;;;4.00;1.67;;;;;9.50;82.85;101214.28;5015320;28;46028;-77
2023/12/30 07:36:33;;;;;;;;;3.00;2.00;;;;;9.50;82.71;101208.97;5015019;28;45467;-75
2023/12/30 07:38:58;;;;;;;;;4.00;3.33;;;;;9.48;82.54;101216.22;5014531;28;45372;-77
2023/12/30 07:41:23;;;;;;;;;4.33;4.33;;;;;9.47;82.74;101202.13;5015872;28;45544;-76
2023/12/30 07:43:49;;;;;;;;;5.00;3.00;;;;;9.44;82.27;101200.56;5014971;28;46031;-78
2023/12/30 07:46:15;;;;;;;;;5.00;4.67;;;;;9.39;82.21;101192.09;5014572;28;45464;-77
2023/12/30 07:48:40;;;;;;;;;3.33;3.33;;;;;9.47;82.37;101199.47;5015292;28;45353;-77
2023/12/30 07:51:06;;;;;;;;;4.00;1.67;;;;;9.44;82.60;101195.25;5015417;28;45450;-78
2023/12/30 07:53:32;;;;;;;;;6.00;3.25;;;;;9.21;81.95;101151.19;5013990;28;48257;-77
2023/12/30 07:55:57;;;;;;;;;2.67;2.00;;;;;9.18;81.94;101142.59;5015347;28;45585;-77
2023/12/30 07:58:23;;;;;;;;;6.00;3.67;;;;;9.38;81.53;101179.81;5014858;28;45443;-78
2023/12/30 08:00:48;;;;;;;;;3.25;1.75;;;;;9.52;81.87;101201.72;5015246;28;45304;-79
2023/12/30 08:03:14;;;;;;;;;4.33;2.00;;;;;9.32;81.52;101169.72;5015176;28;46037;-77
2023/12/30 08:05:39;;;;;;;;;2.00;2.00;;;;;9.11;80.90;101136.97;5014625;28;45936;-78
2023/12/30 08:08:05;;;;;;;;;3.67;3.67;;;;;9.48;80.94;101195.84;5014897;28;45476;-78
2023/12/30 08:10:32;;;;;;;;;3.67;1.67;;;;;9.58;80.52;101211.84;5015218;28;45234;-78
2023/12/30 08:12:58;;;;;;;;;4.67;3.67;;;;;9.53;80.89;101187.50;5015179;28;46193;-77
2023/12/30 08:15:24;;;;;;;;;5.00;3.00;;;;;9.59;80.24;101181.66;5014729;28;45882;-77
2023/12/30 08:17:49;;;;;;;;;3.67;1.67;;;;;9.67;80.03;101189.84;5015083;28;45384;-77
2023/12/30 08:20:15;;;;;;;;;5.00;3.67;;;;;9.80;80.34;101203.78;5015591;28;45524;-76
2023/12/30 08:22:41;;;;;;;;;4.67;4.67;;;;;9.84;79.95;101207.88;4997160;28;46471;-76
2023/12/30 08:25:08;;;;;;;;;3.67;3.00;;;;;9.85;80.06;101201.59;5014203;28;45336;-78
2023/12/30 08:27:34;;;;;;;;;5.67;4.67;;;;;10.01;80.21;101215.28;5014044;28;45535;-79
2023/12/30 08:29:59;;;;;;;;;3.67;3.67;;;;;9.92;80.03;101184.19;5014765;28;45444;-77
2023/12/30 08:32:25;;;;;;;;;3.67;3.00;;;;;10.21;79.81;101215.44;5014742;28;45457;-77
2023/12/30 08:34:50;;;;;;;;;7.00;3.00;;;;;10.28;79.27;101205.97;5015200;28;45376;-76
2023/12/30 08:37:16;;;;;;;;;3.33;3.33;;;;;10.34;79.24;101195.66;5016569;28;45275;-77
2023/12/30 08:39:42;;;;;;;;;2.67;2.33;;;;;10.37;79.45;101194.53;5015017;28;45205;-78
2023/12/30 08:42:09;;;;;;;;;4.67;4.67;;;;;10.40;79.42;101182.81;5014935;28;46434;-77
2023/12/30 08:44:37;;;;;;;;;6.33;2.33;;;;;10.43;79.83;101186.06;5016664;28;45479;-76
2023/12/30 08:47:04;;;;;;;;;3.67;3.00;;;;;10.22;80.02;101138.25;5016677;28;45404;-78
2023/12/30 08:49:29;;;;;;;;;4.33;4.00;;;;;10.52;79.64;101182.59;5019138;28;45363;-78
2023/12/30 08:51:55;;;;;;;;;2.67;2.67;;;;;10.56;79.36;101173.38;5017326;28;46485;-77
2023/12/30 08:54:20;;;;;;;;;2.67;2.67;;;;;10.37;78.97;101120.13;5018976;28;45409;-77
2023/12/30 08:56:45;;;;;;;;;4.67;4.67;;;;;10.61;78.79;101107.38;5018111;28;45265;-76
2023/12/30 08:59:11;;;;;;;;;3.00;3.00;;;;;11.12;77.88;101167.53;5022141;28;45419;-77
2023/12/30 09:01:37;;;;;;;;;4.00;2.33;;;;;11.20;77.90;101165.03;5018604;28;45349;-76
2023/12/30 09:04:02;;;;;;;;;3.67;3.33;;;;;11.05;77.37;101131.81;5019534;28;45420;-77
2023/12/30 09:06:29;;;;;;;;;3.00;3.00;;;;;10.96;77.52;101128.16;5018394;28;45607;-77
2023/12/30 09:08:54;;;;;;;;;3.67;3.00;;;;;11.17;77.42;101152.00;5019549;28;45470;-78
2023/12/30 09:11:22;;;;;;;;;7.00;4.00;;;;;10.81;77.82;101096.75;5025128;28;46071;-78
2023/12/30 09:13:49;;;;;;;;;6.33;5.00;;;;;11.04;78.06;101137.28;5001299;28;45432;-76
2023/12/30 09:16:15;;;;;;;;;7.67;6.00;;;;;11.13;78.24;101131.97;5019031;28;45386;-79
2023/12/30 09:18:42;;;;;;;;;8.33;5.00;;;;;11.40;77.84;101146.41;5018340;28;45302;-77
2023/12/30 09:21:07;;;;;;;;;7.00;4.33;;;;;11.56;77.36;101157.34;5017556;28;46018;-76
2023/12/30 09:23:32;;;;;;;;;7.00;7.00;;;;;11.54;76.62;101141.50;5016440;28;45679;-78
2023/12/30 09:25:58;;;;;;;;;5.33;4.00;;;;;11.27;76.24;101088.97;5017351;28;45352;-76
2023/12/30 09:28:23;;;;;;;;;6.00;4.00;;;;;11.65;76.50;101159.19;5017806;28;45526;-75
2023/12/30 09:30:49;;;;;;;;;6.33;4.00;;;;;11.47;76.26;101123.59;5020806;28;45979;-77
2023/12/30 09:33:14;;;;;;;;;5.33;5.33;;;;;11.69;76.07;101154.41;5021208;28;45407;-77
2023/12/30 09:35:39;;;;;;;;;8.33;6.00;;;;;11.68;76.44;101156.25;5021060;28;45714;-78
2023/12/30 09:38:05;;;;;;;;;5.00;4.00;;;;;11.52;76.11;101143.47;5020903;28;45511;-76
2023/12/30 09:40:30;;;;;;;;;5.33;4.00;;;;;11.56;76.35;101152.88;5019947;28;45692;-78
2023/12/30 09:43:03;;;;;;;;;9.00;4.33;;;;;11.34;76.75;101128.34;5019976;28;45362;-77
2023/12/30 09:45:29;;;;;;;;;7.00;5.33;;;;;11.55;76.83;101150.34;5019719;28;45326;-77
2023/12/30 09:47:56;;;;;;;;;6.00;6.00;;;;;11.54;77.19;101143.34;5018806;28;45276;-76
2023/12/30 09:50:22;;;;;;;;;6.50;6.50;;;;;11.51;76.78;101143.63;5017323;28;45951;-77
2023/12/30 09:52:47;;;;;;;;;6.67;6.67;;;;;11.48;76.95;101139.44;5017699;28;45479;-78
2023/12/30 09:55:12;;;;;;;;;6.67;5.33;;;;;11.20;77.08;101082.53;5017615;28;45427;-76
2023/12/30 09:57:38;;;;;;;;;7.00;5.00;;;;;11.44;77.18;101115.88;5017519;28;45373;-77
2023/12/30 10:00:07;;;;;;;;;6.00;6.00;;;;;11.50;76.67;101112.66;5017362;28;46800;-78
2023/12/30 10:02:35;;;;;;;;;8.00;5.33;;;;;11.43;76.61;101104.41;5019556;28;45507;-78
2023/12/30 10:05:01;;;;;;;;;7.25;6.25;;;;;11.78;76.58;101143.78;5023081;28;45334;-78
2023/12/30 10:07:31;;;;;;;;;4.25;4.25;;;;;11.83;76.42;101152.19;5020592;28;45369;-78
2023/12/30 10:09:56;;;;;;;;;11.25;6.50;;;;;11.73;76.02;101127.34;5018823;28;45440;-76
2023/12/30 10:12:23;;;;;;;;;5.00;5.00;;;;;11.84;76.02;101134.41;5001014;28;45340;-76
2023/12/30 10:14:48;;;;;;;;;4.33;4.33;;;;;11.40;75.55;101061.22;5016915;28;45326;-77
2023/12/30 10:17:14;;;;;;;;;8.75;7.00;;;;;11.62;75.77;101076.09;5018420;28;45615;-78
2023/12/30 10:19:39;;;;;;;;;4.33;4.33;;;;;11.89;75.72;101118.81;4998592;28;46319;-78
2023/12/30 10:22:05;;;;;;;;;4.67;4.67;;;;;11.83;75.03;101112.25;5016694;28;45520;-77
2023/12/30 10:24:30;;;;;;;;;3.33;3.33;;;;;12.00;75.81;101136.44;5017034;28;45438;-76
2023/12/30 10:27:03;;;;;;;;;4.00;4.00;;;;;12.01;75.46;101130.13;5017361;28;45570;-77
2023/12/30 10:29:29;;;;;;;;;5.33;5.33;;;;;11.96;75.83;101132.38;5015848;28;47322;-76
2023/12/30 10:32:03;;;;;;;;;5.00;5.00;;;;;11.95;76.23;101130.72;5016525;28;45454;-78
2023/12/30 10:34:29;;;;;;;;;7.00;7.00;;;;;11.99;76.27;101129.44;4998954;28;45511;-79
2023/12/30 10:36:55;;;;;;;;;5.67;4.67;;;;;11.99;76.31;101126.78;5016808;28;45499;-79
2023/12/30 10:39:25;;;;;;;;;3.75;3.75;;;;;12.04;75.78;101125.38;5018995;28;46152;-76
2023/12/30 10:41:51;;;;;;;;;4.33;2.33;;;;;12.04;76.27;101121.88;5016546;28;45355;-77
2023/12/30 10:44:17;;;;;;;;;4.67;4.00;;;;;12.02;76.43;101105.19;5017239;28;45333;-77
2023/12/30 10:46:47;;;;;;;;;5.00;5.00;;;;;11.96;76.61;101079.94;5017117;28;45297;-78
2023/12/30 10:49:15;;;;;;;;;6.00;5.00;;;;;12.15;76.34;101092.38;5016510;28;46135;-76
2023/12/30 10:51:43;;;;;;;;;7.33;7.33;;;;;12.16;76.11;101086.88;5017141;28;45297;-78
2023/12/30 10:54:13;;;;;;;;;5.67;4.00;;;;;12.16;75.91;101092.22;5017493;28;45519;-81
2023/12/30 10:56:44;;;;;;;;;6.00;5.67;;;;;12.18;76.39;101084.06;5017886;28;45365;-76
2023/12/30 10:59:12;;;;;;;;;6.50;5.00;;;;;12.20;76.49;101082.09;5016965;28;46030;-77
2023/12/30 11:01:38;;;;;;;;;7.67;4.33;;;;;12.07;76.35;101054.94;5016715;28;45483;-79
2023/12/30 11:04:12;;;;;;;;;5.00;5.00;;;;;11.92;76.11;101017.28;5019954;28;45423;-78
2023/12/30 11:06:55;;;;;;;;;6.50;4.50;;;;;12.13;76.59;101063.19;5022256;28;45530;-79
2023/12/30 11:09:24;;;;;;;;;4.00;4.00;;;;;11.93;76.67;101024.28;5021237;28;45410;-81
2023/12/30 11:11:52;;;;;;;;;4.50;4.50;;;;;12.09;76.65;101042.31;5018308;28;45481;-78
2023/12/30 11:14:18;;;;;;;;;4.00;4.00;;;;;12.19;76.89;101064.44;5016145;28;45464;-79
2023/12/30 11:16:45;;;;;;;;;5.33;5.33;;;;;11.97;77.05;101022.16;5020712;28;45578;-80
2023/12/30 11:19:10;;;;;;;;;6.67;5.00;;;;;12.18;77.17;101062.75;5021496;28;45557;-80
2023/12/30 11:21:43;;;;;;;;;5.67;5.00;;;;;12.12;77.22;101031.34;5026379;28;44759;-78
2023/12/30 11:24:15;;;;;;;;;4.67;4.33;;;;;12.19;77.10;101051.09;5020988;28;45361;-79